sensor_id;sensor_type;location;lat;lon;timestamp;P1;durP1;ratioP1;P2;durP2;ratioP2
71734;SDS011;59577;52.122;5.406;2023-05-10T00:01:22;19.00;;;8.77;;
71734;SDS011;59577;52.122;5.406;2023-05-10T00:04:18;20.48;;;9.18;;
71734;SDS011;59577;52.122;5.406;2023-05-10T00:06:51;14.80;;;7.97;;
71734;SDS011;59577;52.122;5.406;2023-05-10T00:09:19;23.65;;;9.52;;
71734;SDS011;59577;52.122;5.406;2023-05-10T00:11:56;18.57;;;9.30;;
71734;SDS011;59577;52.122;5.406;2023-05-10T00:14:28;21.05;;;9.45;;
71734;SDS011;59577;52.122;5.406;2023-05-10T00:17:01;20.05;;;9.48;;
71734;SDS011;59577;52.122;5.406;2023-05-10T00:19:52;32.05;;;12.80;;
71734;SDS011;59577;52.122;5.406;2023-05-10T00:22:26;27.02;;;11.93;;
71734;SDS011;59577;52.122;5.406;2023-05-10T00:24:54;26.77;;;11.10;;
71734;SDS011;59577;52.122;5.406;2023-05-10T00:27:24;16.52;;;8.77;;
71734;SDS011;59577;52.122;5.406;2023-05-10T00:29:58;28.58;;;11.95;;
71734;SDS011;59577;52.122;5.406;2023-05-10T00:32:32;25.48;;;10.48;;
71734;SDS011;59577;52.122;5.406;2023-05-10T00:35:05;30.33;;;12.90;;
71734;SDS011;59577;52.122;5.406;2023-05-10T00:37:35;29.17;;;12.17;;
71734;SDS011;59577;52.122;5.406;2023-05-10T00:40:15;28.20;;;11.93;;
71734;SDS011;59577;52.122;5.406;2023-05-10T00:42:42;29.73;;;13.02;;
71734;SDS011;59577;52.122;5.406;2023-05-10T00:45:22;33.08;;;13.30;;
71734;SDS011;59577;52.122;5.406;2023-05-10T00:48:19;34.22;;;12.98;;
71734;SDS011;59577;52.122;5.406;2023-05-10T00:51:03;37.47;;;13.10;;
71734;SDS011;59577;52.122;5.406;2023-05-10T00:53:54;38.67;;;15.23;;
71734;SDS011;59577;52.122;5.406;2023-05-10T00:56:25;31.95;;;13.27;;
71734;SDS011;59577;52.122;5.406;2023-05-10T00:59:00;38.67;;;15.13;;
71734;SDS011;59577;52.122;5.406;2023-05-10T01:01:30;41.20;;;17.15;;
71734;SDS011;59577;52.122;5.406;2023-05-10T01:04:18;39.17;;;16.03;;
71734;SDS011;59577;52.122;5.406;2023-05-10T01:06:52;43.65;;;16.50;;
71734;SDS011;59577;52.122;5.406;2023-05-10T01:09:22;39.22;;;15.52;;
71734;SDS011;59577;52.122;5.406;2023-05-10T01:11:57;44.17;;;17.05;;
71734;SDS011;59577;52.122;5.406;2023-05-10T01:14:29;39.45;;;15.48;;
71734;SDS011;59577;52.122;5.406;2023-05-10T01:17:04;42.60;;;15.17;;
71734;SDS011;59577;52.122;5.406;2023-05-10T01:19:43;42.90;;;15.90;;
71734;SDS011;59577;52.122;5.406;2023-05-10T01:27:53;45.75;;;15.57;;
71734;SDS011;59577;52.122;5.406;2023-05-10T01:44:41;36.77;;;13.70;;
71734;SDS011;59577;52.122;5.406;2023-05-10T01:47:43;44.03;;;15.68;;
71734;SDS011;59577;52.122;5.406;2023-05-10T01:50:22;46.83;;;15.88;;
71734;SDS011;59577;52.122;5.406;2023-05-10T01:53:00;40.33;;;14.20;;
71734;SDS011;59577;52.122;5.406;2023-05-10T01:55:51;48.30;;;16.23;;
71734;SDS011;59577;52.122;5.406;2023-05-10T01:58:28;48.50;;;17.17;;
71734;SDS011;59577;52.122;5.406;2023-05-10T02:01:01;40.15;;;15.40;;
71734;SDS011;59577;52.122;5.406;2023-05-10T02:03:55;47.95;;;17.80;;
71734;SDS011;59577;52.122;5.406;2023-05-10T02:06:38;61.03;;;18.60;;
71734;SDS011;59577;52.122;5.406;2023-05-10T02:09:39;48.92;;;17.98;;
71734;SDS011;59577;52.122;5.406;2023-05-10T02:12:08;43.53;;;16.07;;
71734;SDS011;59577;52.122;5.406;2023-05-10T02:14:36;49.97;;;16.05;;
71734;SDS011;59577;52.122;5.406;2023-05-10T02:17:05;43.05;;;16.33;;
71734;SDS011;59577;52.122;5.406;2023-05-10T02:19:35;49.00;;;16.42;;
71734;SDS011;59577;52.122;5.406;2023-05-10T02:22:04;49.35;;;16.83;;
71734;SDS011;59577;52.122;5.406;2023-05-10T02:24:36;47.07;;;15.57;;
71734;SDS011;59577;52.122;5.406;2023-05-10T02:27:06;46.80;;;16.38;;
71734;SDS011;59577;52.122;5.406;2023-05-10T02:29:45;45.55;;;16.52;;
71734;SDS011;59577;52.122;5.406;2023-05-10T02:32:39;43.17;;;15.73;;
71734;SDS011;59577;52.122;5.406;2023-05-10T02:35:29;49.97;;;17.00;;
71734;SDS011;59577;52.122;5.406;2023-05-10T02:38:02;50.50;;;16.50;;
71734;SDS011;59577;52.122;5.406;2023-05-10T02:40:33;45.05;;;15.90;;
71734;SDS011;59577;52.122;5.406;2023-05-10T02:43:05;50.33;;;17.40;;
71734;SDS011;59577;52.122;5.406;2023-05-10T02:45:55;46.03;;;16.67;;
71734;SDS011;59577;52.122;5.406;2023-05-10T02:48:22;41.42;;;15.13;;
71734;SDS011;59577;52.122;5.406;2023-05-10T02:51:00;50.03;;;18.30;;
71734;SDS011;59577;52.122;5.406;2023-05-10T02:53:38;43.97;;;15.30;;
71734;SDS011;59577;52.122;5.406;2023-05-10T02:56:20;51.60;;;17.23;;
71734;SDS011;59577;52.122;5.406;2023-05-10T02:59:12;46.95;;;16.27;;
71734;SDS011;59577;52.122;5.406;2023-05-10T03:01:51;53.53;;;18.20;;
71734;SDS011;59577;52.122;5.406;2023-05-10T03:04:18;57.53;;;18.70;;
71734;SDS011;59577;52.122;5.406;2023-05-10T03:06:47;58.22;;;17.90;;
71734;SDS011;59577;52.122;5.406;2023-05-10T03:09:21;61.83;;;19.95;;
71734;SDS011;59577;52.122;5.406;2023-05-10T03:12:08;54.90;;;19.00;;
71734;SDS011;59577;52.122;5.406;2023-05-10T03:15:13;65.72;;;19.83;;
71734;SDS011;59577;52.122;5.406;2023-05-10T03:18:07;60.87;;;20.13;;
71734;SDS011;59577;52.122;5.406;2023-05-10T03:20:47;54.38;;;17.50;;
71734;SDS011;59577;52.122;5.406;2023-05-10T03:26:31;60.38;;;18.30;;
71734;SDS011;59577;52.122;5.406;2023-05-10T03:29:04;64.05;;;18.70;;
71734;SDS011;59577;52.122;5.406;2023-05-10T03:31:36;66.00;;;19.53;;
71734;SDS011;59577;52.122;5.406;2023-05-10T03:34:02;59.00;;;16.70;;
71734;SDS011;59577;52.122;5.406;2023-05-10T03:36:28;63.88;;;19.98;;
71734;SDS011;59577;52.122;5.406;2023-05-10T03:38:55;63.33;;;19.38;;
71734;SDS011;59577;52.122;5.406;2023-05-10T03:41:25;60.88;;;17.77;;
71734;SDS011;59577;52.122;5.406;2023-05-10T03:43:55;63.37;;;18.20;;
71734;SDS011;59577;52.122;5.406;2023-05-10T03:46:34;58.58;;;18.83;;
71734;SDS011;59577;52.122;5.406;2023-05-10T03:49:02;64.65;;;19.65;;
71734;SDS011;59577;52.122;5.406;2023-05-10T03:51:30;61.97;;;17.77;;
71734;SDS011;59577;52.122;5.406;2023-05-10T03:54:18;62.92;;;18.63;;
71734;SDS011;59577;52.122;5.406;2023-05-10T03:56:52;58.00;;;18.67;;
71734;SDS011;59577;52.122;5.406;2023-05-10T03:59:21;59.47;;;18.33;;
71734;SDS011;59577;52.122;5.406;2023-05-10T04:01:53;64.82;;;18.75;;
71734;SDS011;59577;52.122;5.406;2023-05-10T04:04:22;64.18;;;19.83;;
71734;SDS011;59577;52.122;5.406;2023-05-10T04:06:50;63.92;;;19.17;;
71734;SDS011;59577;52.122;5.406;2023-05-10T04:09:38;58.87;;;16.57;;
71734;SDS011;59577;52.122;5.406;2023-05-10T04:12:08;60.70;;;18.75;;
71734;SDS011;59577;52.122;5.406;2023-05-10T04:14:38;54.83;;;18.38;;
71734;SDS011;59577;52.122;5.406;2023-05-10T04:17:06;53.08;;;16.95;;
71734;SDS011;59577;52.122;5.406;2023-05-10T04:19:40;53.20;;;17.08;;
71734;SDS011;59577;52.122;5.406;2023-05-10T04:22:14;57.63;;;17.67;;
71734;SDS011;59577;52.122;5.406;2023-05-10T04:24:45;55.13;;;16.60;;
71734;SDS011;59577;52.122;5.406;2023-05-10T04:27:32;51.03;;;17.05;;
71734;SDS011;59577;52.122;5.406;2023-05-10T04:30:01;51.35;;;16.52;;
71734;SDS011;59577;52.122;5.406;2023-05-10T04:32:28;58.75;;;17.40;;
71734;SDS011;59577;52.122;5.406;2023-05-10T04:35:02;61.33;;;18.20;;
71734;SDS011;59577;52.122;5.406;2023-05-10T04:37:41;59.63;;;16.58;;
71734;SDS011;59577;52.122;5.406;2023-05-10T04:40:12;52.45;;;17.25;;
71734;SDS011;59577;52.122;5.406;2023-05-10T04:42:44;65.05;;;18.20;;
71734;SDS011;59577;52.122;5.406;2023-05-10T04:45:11;57.08;;;16.38;;
71734;SDS011;59577;52.122;5.406;2023-05-10T04:47:49;54.00;;;16.23;;
71734;SDS011;59577;52.122;5.406;2023-05-10T04:50:45;54.67;;;16.85;;
71734;SDS011;59577;52.122;5.406;2023-05-10T04:53:12;53.38;;;17.33;;
71734;SDS011;59577;52.122;5.406;2023-05-10T04:55:41;59.25;;;17.73;;
71734;SDS011;59577;52.122;5.406;2023-05-10T04:58:11;56.35;;;18.23;;
71734;SDS011;59577;52.122;5.406;2023-05-10T05:00:46;52.97;;;16.77;;
71734;SDS011;59577;52.122;5.406;2023-05-10T05:03:13;55.10;;;16.45;;
71734;SDS011;59577;52.122;5.406;2023-05-10T05:06:00;59.63;;;18.45;;
71734;SDS011;59577;52.122;5.406;2023-05-10T05:08:31;56.45;;;16.90;;
71734;SDS011;59577;52.122;5.406;2023-05-10T05:10:58;60.25;;;17.85;;
71734;SDS011;59577;52.122;5.406;2023-05-10T05:13:26;48.07;;;16.13;;
71734;SDS011;59577;52.122;5.406;2023-05-10T05:15:53;55.35;;;17.83;;
71734;SDS011;59577;52.122;5.406;2023-05-10T05:18:23;63.25;;;19.17;;
71734;SDS011;59577;52.122;5.406;2023-05-10T05:20:50;59.17;;;18.85;;
71734;SDS011;59577;52.122;5.406;2023-05-10T05:23:20;58.22;;;17.88;;
71734;SDS011;59577;52.122;5.406;2023-05-10T05:25:52;55.87;;;17.63;;
71734;SDS011;59577;52.122;5.406;2023-05-10T05:28:21;60.47;;;17.58;;
71734;SDS011;59577;52.122;5.406;2023-05-10T05:30:51;55.38;;;17.42;;
71734;SDS011;59577;52.122;5.406;2023-05-10T05:33:36;62.00;;;18.92;;
71734;SDS011;59577;52.122;5.406;2023-05-10T05:36:20;57.53;;;18.20;;
71734;SDS011;59577;52.122;5.406;2023-05-10T05:38:49;58.47;;;17.77;;
71734;SDS011;59577;52.122;5.406;2023-05-10T05:41:20;54.33;;;17.00;;
71734;SDS011;59577;52.122;5.406;2023-05-10T05:43:49;57.92;;;18.20;;
71734;SDS011;59577;52.122;5.406;2023-05-10T05:46:19;45.28;;;16.80;;
71734;SDS011;59577;52.122;5.406;2023-05-10T05:48:53;44.67;;;16.58;;
71734;SDS011;59577;52.122;5.406;2023-05-10T05:51:23;44.73;;;15.37;;
71734;SDS011;59577;52.122;5.406;2023-05-10T05:53:57;46.80;;;16.70;;
71734;SDS011;59577;52.122;5.406;2023-05-10T05:56:24;43.28;;;16.55;;
71734;SDS011;59577;52.122;5.406;2023-05-10T05:58:58;45.80;;;16.65;;
71734;SDS011;59577;52.122;5.406;2023-05-10T06:01:25;52.55;;;17.52;;
71734;SDS011;59577;52.122;5.406;2023-05-10T06:03:56;50.83;;;17.57;;
71734;SDS011;59577;52.122;5.406;2023-05-10T06:06:30;44.63;;;16.00;;
71734;SDS011;59577;52.122;5.406;2023-05-10T06:09:03;36.70;;;15.00;;
71734;SDS011;59577;52.122;5.406;2023-05-10T06:11:34;40.58;;;15.52;;
71734;SDS011;59577;52.122;5.406;2023-05-10T06:14:02;40.55;;;15.68;;
71734;SDS011;59577;52.122;5.406;2023-05-10T06:16:39;40.23;;;16.13;;
71734;SDS011;59577;52.122;5.406;2023-05-10T06:19:32;36.45;;;14.48;;
71734;SDS011;59577;52.122;5.406;2023-05-10T06:22:04;42.17;;;15.48;;
71734;SDS011;59577;52.122;5.406;2023-05-10T06:24:32;37.13;;;14.57;;
71734;SDS011;59577;52.122;5.406;2023-05-10T06:27:00;39.55;;;15.65;;
71734;SDS011;59577;52.122;5.406;2023-05-10T06:29:26;36.70;;;14.20;;
71734;SDS011;59577;52.122;5.406;2023-05-10T06:31:57;40.03;;;16.00;;
71734;SDS011;59577;52.122;5.406;2023-05-10T06:34:52;42.67;;;14.80;;
71734;SDS011;59577;52.122;5.406;2023-05-10T06:37:18;40.35;;;14.88;;
71734;SDS011;59577;52.122;5.406;2023-05-10T06:39:44;34.20;;;13.48;;
71734;SDS011;59577;52.122;5.406;2023-05-10T06:42:11;29.23;;;12.87;;
71734;SDS011;59577;52.122;5.406;2023-05-10T06:44:37;35.80;;;13.27;;
71734;SDS011;59577;52.122;5.406;2023-05-10T06:47:04;30.38;;;12.45;;
71734;SDS011;59577;52.122;5.406;2023-05-10T06:49:30;32.58;;;12.90;;
71734;SDS011;59577;52.122;5.406;2023-05-10T06:51:57;27.35;;;12.05;;
71734;SDS011;59577;52.122;5.406;2023-05-10T06:54:23;31.10;;;11.57;;
71734;SDS011;59577;52.122;5.406;2023-05-10T06:56:50;28.20;;;11.60;;
71734;SDS011;59577;52.122;5.406;2023-05-10T06:59:16;25.40;;;10.88;;
71734;SDS011;59577;52.122;5.406;2023-05-10T07:01:45;25.25;;;10.52;;
71734;SDS011;59577;52.122;5.406;2023-05-10T07:04:11;22.52;;;10.15;;
71734;SDS011;59577;52.122;5.406;2023-05-10T07:06:39;21.13;;;10.17;;
71734;SDS011;59577;52.122;5.406;2023-05-10T07:09:05;21.00;;;8.95;;
71734;SDS011;59577;52.122;5.406;2023-05-10T07:11:32;17.13;;;8.30;;
71734;SDS011;59577;52.122;5.406;2023-05-10T07:13:58;15.77;;;7.75;;
71734;SDS011;59577;52.122;5.406;2023-05-10T07:16:25;16.00;;;8.10;;
71734;SDS011;59577;52.122;5.406;2023-05-10T07:18:52;18.30;;;8.07;;
71734;SDS011;59577;52.122;5.406;2023-05-10T07:21:19;15.90;;;7.93;;
71734;SDS011;59577;52.122;5.406;2023-05-10T07:23:46;16.98;;;7.30;;
71734;SDS011;59577;52.122;5.406;2023-05-10T07:26:12;20.25;;;6.78;;
71734;SDS011;59577;52.122;5.406;2023-05-10T07:28:41;13.25;;;6.47;;
71734;SDS011;59577;52.122;5.406;2023-05-10T07:31:08;14.40;;;6.03;;
71734;SDS011;59577;52.122;5.406;2023-05-10T07:33:34;11.75;;;6.53;;
71734;SDS011;59577;52.122;5.406;2023-05-10T07:36:01;13.25;;;6.45;;
71734;SDS011;59577;52.122;5.406;2023-05-10T07:38:28;12.98;;;6.72;;
71734;SDS011;59577;52.122;5.406;2023-05-10T07:40:54;11.52;;;6.53;;
71734;SDS011;59577;52.122;5.406;2023-05-10T07:43:21;11.63;;;6.50;;
71734;SDS011;59577;52.122;5.406;2023-05-10T07:45:51;14.13;;;6.53;;
71734;SDS011;59577;52.122;5.406;2023-05-10T07:48:21;11.43;;;6.47;;
71734;SDS011;59577;52.122;5.406;2023-05-10T07:50:47;14.57;;;6.15;;
71734;SDS011;59577;52.122;5.406;2023-05-10T07:53:14;11.93;;;6.07;;
71734;SDS011;59577;52.122;5.406;2023-05-10T07:55:41;12.80;;;6.47;;
71734;SDS011;59577;52.122;5.406;2023-05-10T07:58:07;12.32;;;6.00;;
71734;SDS011;59577;52.122;5.406;2023-05-10T08:00:34;11.57;;;6.20;;
71734;SDS011;59577;52.122;5.406;2023-05-10T08:03:00;13.98;;;6.82;;
71734;SDS011;59577;52.122;5.406;2023-05-10T08:05:27;9.20;;;5.50;;
71734;SDS011;59577;52.122;5.406;2023-05-10T08:07:54;9.70;;;5.83;;
71734;SDS011;59577;52.122;5.406;2023-05-10T08:10:20;10.68;;;5.70;;
71734;SDS011;59577;52.122;5.406;2023-05-10T08:12:47;10.10;;;5.55;;
71734;SDS011;59577;52.122;5.406;2023-05-10T08:15:13;7.68;;;5.30;;
71734;SDS011;59577;52.122;5.406;2023-05-10T08:17:40;10.00;;;6.03;;
71734;SDS011;59577;52.122;5.406;2023-05-10T08:20:07;9.73;;;6.10;;
71734;SDS011;59577;52.122;5.406;2023-05-10T08:22:34;11.00;;;6.40;;
71734;SDS011;59577;52.122;5.406;2023-05-10T08:25:00;13.05;;;5.82;;
71734;SDS011;59577;52.122;5.406;2023-05-10T08:27:27;12.25;;;6.35;;
71734;SDS011;59577;52.122;5.406;2023-05-10T08:29:53;12.18;;;6.35;;
71734;SDS011;59577;52.122;5.406;2023-05-10T08:32:20;13.80;;;6.30;;
71734;SDS011;59577;52.122;5.406;2023-05-10T08:34:46;10.95;;;6.20;;
71734;SDS011;59577;52.122;5.406;2023-05-10T08:37:12;15.40;;;6.97;;
71734;SDS011;59577;52.122;5.406;2023-05-10T08:39:39;14.35;;;7.05;;
71734;SDS011;59577;52.122;5.406;2023-05-10T08:42:06;12.50;;;7.28;;
71734;SDS011;59577;52.122;5.406;2023-05-10T08:44:35;11.80;;;6.90;;
71734;SDS011;59577;52.122;5.406;2023-05-10T08:47:04;10.60;;;6.68;;
71734;SDS011;59577;52.122;5.406;2023-05-10T08:49:33;10.90;;;7.13;;
71734;SDS011;59577;52.122;5.406;2023-05-10T08:52:02;12.32;;;7.32;;
71734;SDS011;59577;52.122;5.406;2023-05-10T08:54:33;12.63;;;6.75;;
71734;SDS011;59577;52.122;5.406;2023-05-10T08:57:00;14.33;;;6.60;;
71734;SDS011;59577;52.122;5.406;2023-05-10T08:59:27;12.63;;;7.35;;
71734;SDS011;59577;52.122;5.406;2023-05-10T09:01:55;10.77;;;6.35;;
71734;SDS011;59577;52.122;5.406;2023-05-10T09:04:24;9.75;;;6.25;;
71734;SDS011;59577;52.122;5.406;2023-05-10T09:06:50;12.48;;;7.40;;
71734;SDS011;59577;52.122;5.406;2023-05-10T09:09:17;11.30;;;6.40;;
71734;SDS011;59577;52.122;5.406;2023-05-10T09:11:45;11.35;;;6.07;;
71734;SDS011;59577;52.122;5.406;2023-05-10T09:14:12;10.70;;;6.40;;
71734;SDS011;59577;52.122;5.406;2023-05-10T09:16:39;7.05;;;4.97;;
71734;SDS011;59577;52.122;5.406;2023-05-10T09:19:06;10.45;;;6.20;;
71734;SDS011;59577;52.122;5.406;2023-05-10T09:21:37;7.17;;;5.20;;
71734;SDS011;59577;52.122;5.406;2023-05-10T09:24:05;10.02;;;5.40;;
71734;SDS011;59577;52.122;5.406;2023-05-10T09:26:32;9.30;;;5.40;;
71734;SDS011;59577;52.122;5.406;2023-05-10T09:28:59;6.25;;;4.78;;
71734;SDS011;59577;52.122;5.406;2023-05-10T09:34:28;7.37;;;4.63;;
71734;SDS011;59577;52.122;5.406;2023-05-10T09:36:57;6.75;;;4.32;;
71734;SDS011;59577;52.122;5.406;2023-05-10T09:39:33;7.28;;;4.57;;
71734;SDS011;59577;52.122;5.406;2023-05-10T09:42:08;5.28;;;3.80;;
71734;SDS011;59577;52.122;5.406;2023-05-10T09:44:35;4.75;;;3.83;;
71734;SDS011;59577;52.122;5.406;2023-05-10T09:47:04;6.03;;;4.10;;
71734;SDS011;59577;52.122;5.406;2023-05-10T09:49:30;6.97;;;3.75;;
71734;SDS011;59577;52.122;5.406;2023-05-10T09:52:04;7.82;;;3.78;;
71734;SDS011;59577;52.122;5.406;2023-05-10T09:54:34;4.35;;;3.75;;
71734;SDS011;59577;52.122;5.406;2023-05-10T09:57:00;4.80;;;3.45;;
71734;SDS011;59577;52.122;5.406;2023-05-10T09:59:28;4.70;;;2.73;;
71734;SDS011;59577;52.122;5.406;2023-05-10T10:01:56;3.40;;;3.10;;
71734;SDS011;59577;52.122;5.406;2023-05-10T10:04:24;3.78;;;2.80;;
71734;SDS011;59577;52.122;5.406;2023-05-10T10:07:00;4.35;;;2.85;;
71734;SDS011;59577;52.122;5.406;2023-05-10T10:09:29;3.13;;;2.50;;
71734;SDS011;59577;52.122;5.406;2023-05-10T10:11:56;3.97;;;2.97;;
71734;SDS011;59577;52.122;5.406;2023-05-10T10:14:23;3.65;;;3.00;;
71734;SDS011;59577;52.122;5.406;2023-05-10T10:16:50;3.75;;;3.35;;
71734;SDS011;59577;52.122;5.406;2023-05-10T10:19:32;4.00;;;3.40;;
71734;SDS011;59577;52.122;5.406;2023-05-10T10:22:00;3.50;;;2.85;;
71734;SDS011;59577;52.122;5.406;2023-05-10T10:24:27;4.33;;;3.13;;
71734;SDS011;59577;52.122;5.406;2023-05-10T10:26:54;5.35;;;3.40;;
71734;SDS011;59577;52.122;5.406;2023-05-10T10:32:03;5.20;;;3.58;;
71734;SDS011;59577;52.122;5.406;2023-05-10T10:34:38;5.25;;;3.60;;
71734;SDS011;59577;52.122;5.406;2023-05-10T10:37:06;5.53;;;4.20;;
71734;SDS011;59577;52.122;5.406;2023-05-10T10:39:32;6.85;;;4.63;;
71734;SDS011;59577;52.122;5.406;2023-05-10T10:41:59;5.45;;;4.03;;
71734;SDS011;59577;52.122;5.406;2023-05-10T10:49:49;5.83;;;3.57;;
71734;SDS011;59577;52.122;5.406;2023-05-10T10:52:38;4.85;;;3.38;;
71734;SDS011;59577;52.122;5.406;2023-05-10T10:55:06;4.97;;;3.30;;
71734;SDS011;59577;52.122;5.406;2023-05-10T11:02:57;4.97;;;3.30;;
71734;SDS011;59577;52.122;5.406;2023-05-10T11:08:47;4.78;;;3.72;;
71734;SDS011;59577;52.122;5.406;2023-05-10T11:13:39;4.30;;;2.90;;
71734;SDS011;59577;52.122;5.406;2023-05-10T11:18:55;5.13;;;3.30;;
71734;SDS011;59577;52.122;5.406;2023-05-10T11:21:24;5.32;;;3.15;;
71734;SDS011;59577;52.122;5.406;2023-05-10T11:23:52;4.00;;;3.10;;
71734;SDS011;59577;52.122;5.406;2023-05-10T11:26:33;3.67;;;2.80;;
71734;SDS011;59577;52.122;5.406;2023-05-10T11:29:01;4.57;;;3.03;;
71734;SDS011;59577;52.122;5.406;2023-05-10T11:31:28;3.28;;;2.67;;
71734;SDS011;59577;52.122;5.406;2023-05-10T11:33:56;4.18;;;2.80;;
71734;SDS011;59577;52.122;5.406;2023-05-10T11:36:28;4.07;;;3.08;;
71734;SDS011;59577;52.122;5.406;2023-05-10T11:39:01;5.20;;;3.22;;
71734;SDS011;59577;52.122;5.406;2023-05-10T11:41:29;3.77;;;2.60;;
71734;SDS011;59577;52.122;5.406;2023-05-10T11:43:57;3.33;;;2.80;;
71734;SDS011;59577;52.122;5.406;2023-05-10T11:46:25;3.47;;;2.70;;
71734;SDS011;59577;52.122;5.406;2023-05-10T11:48:55;3.92;;;2.72;;
71734;SDS011;59577;52.122;5.406;2023-05-10T11:51:24;4.63;;;1.95;;
71734;SDS011;59577;52.122;5.406;2023-05-10T11:53:52;2.80;;;2.00;;
71734;SDS011;59577;52.122;5.406;2023-05-10T11:56:20;3.53;;;2.20;;
71734;SDS011;59577;52.122;5.406;2023-05-10T11:58:52;3.13;;;2.10;;
71734;SDS011;59577;52.122;5.406;2023-05-10T12:01:20;3.45;;;2.10;;
71734;SDS011;59577;52.122;5.406;2023-05-10T12:03:47;2.63;;;1.88;;
71734;SDS011;59577;52.122;5.406;2023-05-10T12:06:14;5.23;;;2.10;;
71734;SDS011;59577;52.122;5.406;2023-05-10T12:08:45;5.20;;;2.28;;
71734;SDS011;59577;52.122;5.406;2023-05-10T12:11:13;4.40;;;2.00;;
71734;SDS011;59577;52.122;5.406;2023-05-10T12:13:41;3.03;;;1.92;;
71734;SDS011;59577;52.122;5.406;2023-05-10T12:16:12;4.13;;;1.98;;
71734;SDS011;59577;52.122;5.406;2023-05-10T12:18:50;4.50;;;1.63;;
71734;SDS011;59577;52.122;5.406;2023-05-10T12:21:18;5.88;;;1.95;;
71734;SDS011;59577;52.122;5.406;2023-05-10T12:23:46;4.78;;;1.80;;
71734;SDS011;59577;52.122;5.406;2023-05-10T12:26:14;3.83;;;1.77;;
71734;SDS011;59577;52.122;5.406;2023-05-10T12:28:41;3.13;;;1.52;;
71734;SDS011;59577;52.122;5.406;2023-05-10T12:31:08;3.17;;;1.70;;
71734;SDS011;59577;52.122;5.406;2023-05-10T12:33:38;3.33;;;1.77;;
71734;SDS011;59577;52.122;5.406;2023-05-10T12:36:12;3.00;;;1.65;;
71734;SDS011;59577;52.122;5.406;2023-05-10T12:41:10;2.78;;;1.98;;
71734;SDS011;59577;52.122;5.406;2023-05-10T12:43:37;5.40;;;1.50;;
71734;SDS011;59577;52.122;5.406;2023-05-10T12:46:14;2.70;;;1.70;;
71734;SDS011;59577;52.122;5.406;2023-05-10T12:48:43;2.15;;;1.65;;
71734;SDS011;59577;52.122;5.406;2023-05-10T12:51:10;2.47;;;1.73;;
71734;SDS011;59577;52.122;5.406;2023-05-10T12:53:39;2.22;;;1.77;;
71734;SDS011;59577;52.122;5.406;2023-05-10T12:56:09;3.37;;;1.80;;
71734;SDS011;59577;52.122;5.406;2023-05-10T12:58:36;2.03;;;1.25;;
71734;SDS011;59577;52.122;5.406;2023-05-10T13:01:02;2.10;;;1.05;;
71734;SDS011;59577;52.122;5.406;2023-05-10T13:03:30;1.40;;;1.13;;
71734;SDS011;59577;52.122;5.406;2023-05-10T13:05:56;1.75;;;1.10;;
71734;SDS011;59577;52.122;5.406;2023-05-10T13:08:23;1.97;;;0.90;;
71734;SDS011;59577;52.122;5.406;2023-05-10T13:10:49;1.45;;;0.88;;
71734;SDS011;59577;52.122;5.406;2023-05-10T13:13:16;1.60;;;1.17;;
71734;SDS011;59577;52.122;5.406;2023-05-10T13:15:43;3.65;;;1.70;;
71734;SDS011;59577;52.122;5.406;2023-05-10T13:18:10;5.00;;;2.63;;
71734;SDS011;59577;52.122;5.406;2023-05-10T13:20:37;4.90;;;2.83;;
71734;SDS011;59577;52.122;5.406;2023-05-10T13:23:03;4.22;;;3.05;;
71734;SDS011;59577;52.122;5.406;2023-05-10T13:25:30;3.35;;;2.70;;
71734;SDS011;59577;52.122;5.406;2023-05-10T13:27:56;4.40;;;2.88;;
71734;SDS011;59577;52.122;5.406;2023-05-10T13:30:23;5.43;;;2.75;;
71734;SDS011;59577;52.122;5.406;2023-05-10T13:32:50;6.60;;;2.50;;
71734;SDS011;59577;52.122;5.406;2023-05-10T13:35:17;4.10;;;2.42;;
71734;SDS011;59577;52.122;5.406;2023-05-10T13:37:44;4.18;;;2.30;;
71734;SDS011;59577;52.122;5.406;2023-05-10T13:40:10;6.25;;;2.45;;
71734;SDS011;59577;52.122;5.406;2023-05-10T13:42:37;5.30;;;2.17;;
71734;SDS011;59577;52.122;5.406;2023-05-10T13:45:03;6.97;;;2.50;;
71734;SDS011;59577;52.122;5.406;2023-05-10T13:47:30;4.90;;;2.67;;
71734;SDS011;59577;52.122;5.406;2023-05-10T13:49:57;8.55;;;2.70;;
71734;SDS011;59577;52.122;5.406;2023-05-10T13:52:24;5.05;;;2.78;;
71734;SDS011;59577;52.122;5.406;2023-05-10T13:54:51;6.47;;;3.05;;
71734;SDS011;59577;52.122;5.406;2023-05-10T13:57:18;4.50;;;2.70;;
71734;SDS011;59577;52.122;5.406;2023-05-10T13:59:44;7.57;;;3.72;;
71734;SDS011;59577;52.122;5.406;2023-05-10T14:02:11;6.25;;;3.10;;
71734;SDS011;59577;52.122;5.406;2023-05-10T14:04:39;6.50;;;3.33;;
71734;SDS011;59577;52.122;5.406;2023-05-10T14:07:05;6.63;;;3.05;;
71734;SDS011;59577;52.122;5.406;2023-05-10T14:09:32;7.13;;;3.00;;
71734;SDS011;59577;52.122;5.406;2023-05-10T14:11:58;5.20;;;3.28;;
71734;SDS011;59577;52.122;5.406;2023-05-10T14:14:24;5.78;;;2.92;;
71734;SDS011;59577;52.122;5.406;2023-05-10T14:16:51;5.45;;;3.13;;
71734;SDS011;59577;52.122;5.406;2023-05-10T14:19:18;5.53;;;3.63;;
71734;SDS011;59577;52.122;5.406;2023-05-10T14:21:44;6.03;;;3.07;;
71734;SDS011;59577;52.122;5.406;2023-05-10T14:24:11;7.10;;;3.60;;
71734;SDS011;59577;52.122;5.406;2023-05-10T14:26:38;7.85;;;3.63;;
71734;SDS011;59577;52.122;5.406;2023-05-10T14:29:04;7.55;;;3.13;;
71734;SDS011;59577;52.122;5.406;2023-05-10T14:31:31;6.35;;;3.30;;
71734;SDS011;59577;52.122;5.406;2023-05-10T14:33:58;6.27;;;3.47;;
71734;SDS011;59577;52.122;5.406;2023-05-10T14:36:25;6.95;;;3.90;;
71734;SDS011;59577;52.122;5.406;2023-05-10T14:38:51;7.38;;;3.88;;
71734;SDS011;59577;52.122;5.406;2023-05-10T14:41:18;9.52;;;3.70;;
71734;SDS011;59577;52.122;5.406;2023-05-10T14:43:44;7.22;;;3.58;;
71734;SDS011;59577;52.122;5.406;2023-05-10T14:46:11;7.60;;;3.80;;
71734;SDS011;59577;52.122;5.406;2023-05-10T14:48:38;8.85;;;4.38;;
71734;SDS011;59577;52.122;5.406;2023-05-10T14:51:05;8.05;;;3.75;;
71734;SDS011;59577;52.122;5.406;2023-05-10T14:53:32;7.20;;;4.35;;
71734;SDS011;59577;52.122;5.406;2023-05-10T14:55:59;5.80;;;3.63;;
71734;SDS011;59577;52.122;5.406;2023-05-10T14:58:27;10.43;;;4.13;;
71734;SDS011;59577;52.122;5.406;2023-05-10T15:00:54;8.70;;;4.28;;
71734;SDS011;59577;52.122;5.406;2023-05-10T15:03:21;5.95;;;3.53;;
71734;SDS011;59577;52.122;5.406;2023-05-10T15:05:49;7.70;;;3.50;;
71734;SDS011;59577;52.122;5.406;2023-05-10T15:08:15;6.63;;;3.40;;
71734;SDS011;59577;52.122;5.406;2023-05-10T15:10:42;7.97;;;3.90;;
71734;SDS011;59577;52.122;5.406;2023-05-10T15:13:09;7.80;;;3.70;;
71734;SDS011;59577;52.122;5.406;2023-05-10T15:15:35;9.32;;;4.05;;
71734;SDS011;59577;52.122;5.406;2023-05-10T15:18:02;6.97;;;4.05;;
71734;SDS011;59577;52.122;5.406;2023-05-10T15:20:29;7.78;;;4.78;;
71734;SDS011;59577;52.122;5.406;2023-05-10T15:22:55;7.17;;;4.20;;
71734;SDS011;59577;52.122;5.406;2023-05-10T15:25:22;7.45;;;4.03;;
71734;SDS011;59577;52.122;5.406;2023-05-10T15:27:49;6.25;;;4.05;;
71734;SDS011;59577;52.122;5.406;2023-05-10T15:30:16;7.38;;;4.50;;
71734;SDS011;59577;52.122;5.406;2023-05-10T15:32:42;5.32;;;3.55;;
71734;SDS011;59577;52.122;5.406;2023-05-10T15:35:09;7.63;;;4.33;;
71734;SDS011;59577;52.122;5.406;2023-05-10T15:37:39;5.25;;;3.60;;
71734;SDS011;59577;52.122;5.406;2023-05-10T15:40:06;6.53;;;4.07;;
71734;SDS011;59577;52.122;5.406;2023-05-10T15:42:32;7.57;;;4.40;;
71734;SDS011;59577;52.122;5.406;2023-05-10T15:44:59;5.72;;;3.85;;